This is the latest recevied weather packets stored in our database for station/object W5CRT. If no packets are shown the sender has not sent any weather packets the latest 10 day(s).
| Time | Temp. | Humidity | Pressure | Rain* | Wind** | Luminosity | Snow |
|---|---|---|---|---|---|---|---|
| 1778079804 | 12.78° C | 81% | 1011.8 hPa | 0 mm | - | 127 W/m² | - |
| 1778079500 | 12.78° C | 80% | 1012.4 hPa | 0 mm | - | 76 W/m² | - |
| 1778079197 | 12.78° C | 80% | 1012.9 hPa | 0 mm | - | 63 W/m² | - |
| 1778078895 | 12.78° C | 80% | 1013.2 hPa | 0 mm | - | 74 W/m² | - |
| 1778078591 | 12.78° C | 81% | 1013.2 hPa | 0 mm | - | 84 W/m² | - |
| 1778078290 | 12.78° C | 82% | 1012.6 hPa | 0 mm | - | 91 W/m² | - |
| 1778077986 | 12.78° C | 81% | 1012.4 hPa | 0 mm | - | 100 W/m² | - |
| 1778077684 | 12.22° C | 81% | 1012.2 hPa | 0 mm | - | 127 W/m² | - |
| 1778077382 | 12.22° C | 81% | 1012.4 hPa | 0 mm | - | 88 W/m² | - |
| 1778077080 | 12.22° C | 81% | 1012.3 hPa | 0 mm | - | 72 W/m² | - |
| 1778076778 | 12.22° C | 81% | 1012 hPa | 0 mm | - | 71 W/m² | - |
| 1778076475 | 12.22° C | 82% | 1011.8 hPa | 0 mm | - | 70 W/m² | - |
| 1778076172 | 12.22° C | 83% | 1011.9 hPa | 0 mm | - | 62 W/m² | - |
| 1778075869 | 12.22° C | 83% | 1011.7 hPa | 0 mm | - | 67 W/m² | - |
| 1778075565 | 11.67° C | 83% | 1011.8 hPa | 0 mm | - | 53 W/m² | - |
| 1778075262 | 11.67° C | 83% | 1011.6 hPa | 0 mm | - | 60 W/m² | - |
| 1778074959 | 11.67° C | 83% | 1012 hPa | 0 mm | - | 47 W/m² | - |
| 1778074656 | 11.67° C | 83% | 1011.8 hPa | 0 mm | - | 51 W/m² | - |
| 1778074352 | 11.67° C | 83% | 1011.7 hPa | 0 mm | - | 40 W/m² | - |
| 1778074049 | 11.67° C | 83% | 1011.3 hPa | 0 mm | - | 43 W/m² | - |
| 1778073747 | 11.67° C | 83% | 1011.4 hPa | 0 mm | - | 40 W/m² | - |
| 1778073444 | 11.67° C | 82% | 1011.5 hPa | 0 mm | - | 27 W/m² | - |
| 1778073140 | 11.67° C | 82% | 1011.4 hPa | 0 mm | - | 27 W/m² | - |
| 1778072837 | 11.67° C | 82% | 1011.3 hPa | 0 mm | - | 32 W/m² | - |
| 1778072534 | 11.67° C | 82% | 1011.4 hPa | 0 mm | - | 30 W/m² | - |
* Rain latest hour (hover to see other rain measurements)
** Current wind speed in m/s (hover to see current wind gust speed)